Main page
METAR-TAF:

METAR-TAF

Airports :

Norrköping Airport

Norrköping, Sweden

latitude: 58-35N, longitude: 016-09E, elevation: 34 m

Current weather observation

The report was made 15 minutes ago, at 17:50 UTC
Wind 14 kt from the West/Southwest
Temperature 6°C
Humidity 81%
Pressure 996 hPa
Visibility 10 km or more
Scattered clouds at a height of 2500 ft
Broken clouds at a height of 3200 ft

METAR: ESSP 191750Z 25014KT 9999 SCT025 BKN032 06/03 Q0996 R27/190095

Time: 19:05 (18:05 UTC)

Forecast

The report was made 35 minutes ago, at 17:30 UTC
Forecast valid from 19 at 18 UTC to 19 at 23 UTC
Wind 12 kt from the West
Visibility 10 km or more
Scattered clouds at a height of 2000 ft

TAF: ESSP 191730Z 1918/1923 27012KT 9999 SCT020

Weather observations and forecasts of more than 4000 airports (METAR and TAF reports).

The available stations are represented by yellow and red dots on the map.

Hover mouse over dot to see the name of the station.

Then click to see weather observations and forecasts.

To change the map : click on the green buttons with a black cross to zoom in, on the green button with a dash to zoom out, or on the green arrows for adjacent maps.


METAR-TAF: